createdAt,value
2022-11-06T00:00:31.053Z,98630.13
2022-11-06T00:03:33.691Z,98626.88
2022-11-06T00:06:51.207Z,98612.78
2022-11-06T00:09:53.853Z,98605.84
2022-11-06T00:12:58.118Z,98606.16
2022-11-06T00:16:04.305Z,98600.03
2022-11-06T00:19:07.369Z,98605.03
2022-11-06T00:22:10.050Z,98602.63
2022-11-06T00:25:13.181Z,98612.78
2022-11-06T00:28:17.162Z,98607.69
2022-11-06T00:31:21.640Z,98612.09
2022-11-06T00:34:24.337Z,98616.53
2022-11-06T00:37:26.951Z,98618.00
2022-11-06T00:40:29.613Z,98615.94
2022-11-06T00:43:34.155Z,98621.25
2022-11-06T00:46:37.882Z,98621.13
2022-11-06T00:49:40.720Z,98620.75
2022-11-06T00:52:43.342Z,98625.03
2022-11-06T00:55:45.982Z,98631.38
2022-11-06T00:58:50.597Z,98621.13
2022-11-06T01:01:53.498Z,98619.97
2022-11-06T01:04:56.233Z,98624.81
2022-11-06T01:07:58.855Z,98622.31
2022-11-06T01:11:07.180Z,98622.75
2022-11-06T01:14:12.911Z,98620.53
2022-11-06T01:17:15.810Z,98617.66
2022-11-06T01:20:18.543Z,98619.81
2022-11-06T01:23:21.147Z,98610.47
2022-11-06T01:26:37.248Z,98606.28
2022-11-06T01:29:42.606Z,98604.19
2022-11-06T01:32:45.224Z,98613.19
2022-11-06T01:35:48.784Z,98611.44
2022-11-06T01:38:53.791Z,98615.16
2022-11-06T01:41:56.617Z,98619.50
2022-11-06T01:45:32.348Z,98616.47
2022-11-06T01:48:35.141Z,98620.41
2022-11-06T01:51:42.387Z,98617.38
2022-11-06T01:54:48.868Z,98613.22
2022-11-06T01:57:52.373Z,98604.91
2022-11-06T02:00:56.404Z,98607.44
2022-11-06T02:04:16.952Z,98611.34
2022-11-06T02:07:21.320Z,98606.09
2022-11-06T02:10:24.428Z,98600.22
2022-11-06T02:13:38.680Z,98596.59
2022-11-06T02:16:52.600Z,98590.50
2022-11-06T02:20:04.361Z,98598.25
2022-11-06T02:23:26.228Z,98597.78
2022-11-06T02:26:47.467Z,98594.53
2022-11-06T02:29:55.524Z,98594.53
2022-11-06T02:33:01.526Z,98575.94
2022-11-06T02:36:08.677Z,98578.19
2022-11-06T02:39:15.275Z,98571.22
2022-11-06T02:42:21.911Z,98564.75
2022-11-06T02:45:26.752Z,98552.28
2022-11-06T02:48:33.789Z,98546.56
2022-11-06T02:51:40.990Z,98536.13
2022-11-06T02:54:48.350Z,98527.78
2022-11-06T02:57:56.155Z,98532.66
2022-11-06T03:01:04.113Z,98527.72
2022-11-06T03:04:13.298Z,98517.25
2022-11-06T03:07:21.345Z,98517.59
2022-11-06T03:10:29.559Z,98515.97
2022-11-06T03:13:45.455Z,98512.75
2022-11-06T03:16:55.771Z,98517.81
2022-11-06T03:20:05.010Z,98511.59
2022-11-06T03:23:14.164Z,98509.16
2022-11-06T03:26:20.869Z,98506.84
2022-11-06T03:29:35.712Z,98509.00
2022-11-06T03:32:43.443Z,98511.41
2022-11-06T03:35:51.092Z,98514.66
2022-11-06T03:38:57.711Z,98508.72
2022-11-06T03:42:05.569Z,98496.63
2022-11-06T03:45:14.728Z,98504.16
2022-11-06T03:48:22.380Z,98496.19
2022-11-06T03:51:31.274Z,98490.94
2022-11-06T03:54:40.445Z,98494.84
2022-11-06T03:57:46.740Z,98492.41
2022-11-06T04:00:53.078Z,98491.81
2022-11-06T04:03:59.149Z,98486.81
2022-11-06T04:07:07.792Z,98476.56
2022-11-06T04:10:29.698Z,98478.53
2022-11-06T04:13:51.950Z,98474.31
2022-11-06T04:16:59.895Z,98473.75
2022-11-06T04:20:04.820Z,98468.88
2022-11-06T04:23:15.102Z,98466.38
2022-11-06T04:26:37.906Z,98465.09
2022-11-06T04:29:56.656Z,98464.31
2022-11-06T04:33:07.560Z,98457.25
2022-11-06T04:36:22.351Z,98460.09
2022-11-06T04:39:30.956Z,98453.09
2022-11-06T04:42:40.888Z,98449.84
2022-11-06T04:45:48.465Z,98445.22
2022-11-06T04:48:53.719Z,98446.13
2022-11-06T04:51:57.777Z,98445.91
2022-11-06T04:55:00.478Z,98429.50
2022-11-06T04:58:03.208Z,98418.16
2022-11-06T05:01:06.547Z,98416.56
2022-11-06T05:04:11.752Z,98427.75
2022-11-06T05:07:14.833Z,98442.97
2022-11-06T05:10:17.485Z,98452.09
2022-11-06T05:13:20.132Z,98456.69
2022-11-06T05:16:22.725Z,98460.72
2022-11-06T05:19:26.903Z,98454.59
2022-11-06T05:22:47.324Z,98458.06
2022-11-06T05:25:49.958Z,98452.47
2022-11-06T05:28:52.670Z,98444.75
2022-11-06T05:31:55.634Z,98457.19
2022-11-06T05:34:59.567Z,98465.81
2022-11-06T05:38:02.699Z,98464.63
2022-11-06T05:41:05.531Z,98452.72
2022-11-06T05:44:08.176Z,98443.59
2022-11-06T05:47:11.013Z,98446.72
2022-11-06T05:50:14.996Z,98448.66
2022-11-06T05:53:17.863Z,98447.06
2022-11-06T05:56:20.603Z,98437.81
2022-11-06T05:59:23.291Z,98451.19
2022-11-06T06:02:26.035Z,98462.34
2022-11-06T06:05:30.422Z,98455.03
2022-11-06T06:08:33.313Z,98453.94
2022-11-06T06:11:35.992Z,98452.31
2022-11-06T06:14:38.665Z,98456.66
2022-11-06T06:17:41.267Z,98471.84
2022-11-06T06:20:45.249Z,98462.19
2022-11-06T06:23:47.898Z,98450.63
2022-11-06T06:26:50.657Z,98447.81
2022-11-06T06:29:53.346Z,98449.75
2022-11-06T06:32:56.429Z,98441.50
2022-11-06T06:36:03.677Z,98437.38
2022-11-06T06:39:06.384Z,98432.75
2022-11-06T06:42:09.080Z,98445.34
2022-11-06T06:45:11.835Z,98451.00
2022-11-06T06:48:15.034Z,98441.94
2022-11-06T06:51:23.732Z,98425.44
2022-11-06T06:54:27.048Z,98417.56
2022-11-06T06:57:29.690Z,98419.00
2022-11-06T07:00:32.436Z,98417.78
2022-11-06T07:03:35.205Z,98407.69
2022-11-06T07:06:39.213Z,98399.63
2022-11-06T07:09:41.947Z,98394.34
2022-11-06T07:12:44.671Z,98387.31
2022-11-06T07:15:47.355Z,98389.25
2022-11-06T07:18:50.016Z,98379.38
2022-11-06T07:21:54.463Z,98369.34
2022-11-06T07:24:57.297Z,98369.91
2022-11-06T07:28:02.824Z,98361.72
2022-11-06T07:31:07.565Z,98351.69
2022-11-06T07:34:10.828Z,98348.38
2022-11-06T07:37:14.791Z,98350.31
2022-11-06T07:40:17.626Z,98342.81
2022-11-06T07:43:20.341Z,98345.13
2022-11-06T07:46:22.963Z,98342.59
2022-11-06T07:49:25.688Z,98336.81
2022-11-06T07:52:29.695Z,98327.25
2022-11-06T07:55:33.278Z,98314.44
2022-11-06T07:58:37.344Z,98305.88
2022-11-06T08:01:40.114Z,98302.41
2022-11-06T08:04:42.881Z,98287.06
2022-11-06T08:07:47.182Z,98298.59
2022-11-06T08:10:52.022Z,98293.50
2022-11-06T08:13:54.661Z,98281.03
2022-11-06T08:16:58.369Z,98283.19
2022-11-06T08:20:00.986Z,98276.03
2022-11-06T08:23:07.326Z,98277.25
2022-11-06T08:26:10.072Z,98273.66
2022-11-06T08:29:12.715Z,98282.66
2022-11-06T08:32:15.391Z,98282.50
2022-11-06T08:35:18.247Z,98287.19
2022-11-06T08:38:27.221Z,98284.47
2022-11-06T08:41:31.968Z,98286.38
2022-11-06T08:44:36.853Z,98286.41
2022-11-06T08:47:42.389Z,98274.19
2022-11-06T08:50:47.439Z,98278.13
2022-11-06T08:53:54.010Z,98269.50
2022-11-06T08:57:00.485Z,98261.50
2022-11-06T09:00:05.989Z,98269.41
2022-11-06T09:03:14.181Z,98271.19
2022-11-06T09:06:19.886Z,98267.94
2022-11-06T09:09:32.202Z,98263.84
2022-11-06T09:12:37.303Z,98255.28
2022-11-06T09:15:42.421Z,98259.78
2022-11-06T09:18:47.221Z,98262.13
2022-11-06T09:21:54.874Z,98275.13
2022-11-06T09:25:04.392Z,98301.03
2022-11-06T09:28:09.497Z,98302.38
2022-11-06T09:31:14.433Z,98280.53
2022-11-06T09:34:19.064Z,98265.38
2022-11-06T09:37:24.016Z,98254.88
2022-11-06T09:40:33.368Z,98247.97
2022-11-06T09:44:05.969Z,98256.50
2022-11-06T09:47:19.227Z,98244.03
2022-11-06T09:50:28.663Z,98232.91
2022-11-06T09:53:38.709Z,98221.50
2022-11-06T09:56:50.424Z,98217.47
2022-11-06T09:59:55.584Z,98213.44
2022-11-06T10:03:06.692Z,98201.28
2022-11-06T10:06:11.350Z,98195.78
2022-11-06T10:09:17.840Z,98198.69
2022-11-06T10:12:36.041Z,98202.03
2022-11-06T10:15:47.191Z,98196.63
2022-11-06T10:19:00.591Z,98201.66
2022-11-06T10:22:12.540Z,98190.19
2022-11-06T10:25:22.334Z,98180.16
2022-11-06T10:28:59.013Z,98162.28
2022-11-06T10:32:24.135Z,98159.84
2022-11-06T10:35:35.287Z,98155.78
2022-11-06T10:38:44.132Z,98149.13
2022-11-06T10:41:53.265Z,98136.66
2022-11-06T10:45:06.648Z,98134.19
2022-11-06T10:48:28.972Z,98131.06
2022-11-06T10:51:57.925Z,98123.81
2022-11-06T10:55:48.592Z,98120.94
2022-11-06T10:58:54.858Z,98107.84
2022-11-06T11:02:03.316Z,98100.44
2022-11-06T11:05:15.903Z,98079.56
2022-11-06T11:08:35.037Z,98087.88
2022-11-06T11:11:50.725Z,98064.78
2022-11-06T11:15:14.149Z,98052.81
2022-11-06T11:18:24.393Z,98040.78
2022-11-06T11:21:29.864Z,98043.41
2022-11-06T11:24:35.021Z,98038.56
2022-11-06T11:27:46.182Z,98021.63
2022-11-06T11:30:55.903Z,98023.75
2022-11-06T11:34:05.483Z,98022.13
2022-11-06T11:37:23.877Z,98018.25
2022-11-06T11:40:36.744Z,98004.28
2022-11-06T11:43:42.008Z,98007.97
2022-11-06T11:46:51.637Z,97995.25
2022-11-06T11:49:59.381Z,97981.63
2022-11-06T11:53:10.836Z,97972.19
2022-11-06T11:56:36.118Z,97964.38
2022-11-06T11:59:47.215Z,97956.84
2022-11-06T12:02:55.434Z,97947.09
2022-11-06T12:06:11.415Z,97953.09
2022-11-06T12:09:16.929Z,97958.78
2022-11-06T12:12:24.752Z,97938.38
2022-11-06T12:15:42.845Z,97931.47
2022-11-06T12:18:53.489Z,97933.34
2022-11-06T12:22:09.535Z,97924.00
2022-11-06T12:25:18.965Z,97918.34
2022-11-06T12:28:27.489Z,97912.53
2022-11-06T12:31:39.620Z,97922.44
2022-11-06T12:34:53.068Z,97892.47
2022-11-06T12:38:13.476Z,97900.06
2022-11-06T12:41:25.372Z,97903.25
2022-11-06T12:44:30.440Z,97900.28
2022-11-06T12:47:48.056Z,97899.22
2022-11-06T12:50:59.768Z,97893.03
2022-11-06T12:54:19.513Z,97896.06
2022-11-06T12:57:33.522Z,97884.25
2022-11-06T13:00:49.156Z,97871.84
2022-11-06T13:04:21.994Z,97881.97
2022-11-06T13:07:59.645Z,97868.19
2022-11-06T13:11:15.842Z,97868.88
2022-11-06T13:14:32.766Z,97867.44
2022-11-06T13:17:48.107Z,97862.78
2022-11-06T13:20:59.699Z,97858.22
2022-11-06T13:24:09.312Z,97856.19
2022-11-06T13:27:25.121Z,97845.81
2022-11-06T13:30:32.878Z,97843.72
2022-11-06T13:33:44.702Z,97849.56
2022-11-06T13:36:57.692Z,97847.53
2022-11-06T13:40:08.892Z,97845.97
2022-11-06T13:43:21.813Z,97844.66
2022-11-06T13:46:35.106Z,97840.22
2022-11-06T13:49:46.217Z,97837.75
2022-11-06T13:52:57.538Z,97838.38
2022-11-06T13:56:15.628Z,97832.56
2022-11-06T13:59:44.357Z,97823.53
2022-11-06T14:03:13.494Z,97832.63
2022-11-06T14:06:22.263Z,97820.84
2022-11-06T14:09:29.991Z,97825.19
2022-11-06T14:12:35.171Z,97829.75
2022-11-06T14:15:44.416Z,97839.50
2022-11-06T14:19:00.456Z,97847.03
2022-11-06T14:22:26.613Z,97843.53
2022-11-06T14:25:49.439Z,97843.84
2022-11-06T14:28:54.601Z,97841.69
2022-11-06T14:32:06.925Z,97843.03
2022-11-06T14:35:50.763Z,97840.13
2022-11-06T14:38:54.213Z,97835.81
2022-11-06T14:42:00.053Z,97827.84
2022-11-06T14:45:09.983Z,97834.59
2022-11-06T14:48:28.068Z,97824.72
2022-11-06T14:51:31.165Z,97811.91
2022-11-06T14:54:37.378Z,97812.44
2022-11-06T14:57:45.457Z,97803.88
2022-11-06T15:00:54.731Z,97799.94
2022-11-06T15:04:02.158Z,97795.97
2022-11-06T15:07:10.051Z,97790.94
2022-11-06T15:10:50.505Z,97797.63
2022-11-06T15:13:53.103Z,97805.72
2022-11-06T15:17:03.571Z,97800.06
2022-11-06T15:20:17.152Z,97797.63
2022-11-06T15:23:24.659Z,97792.03
2022-11-06T15:26:33.323Z,97787.50
2022-11-06T15:29:41.979Z,97798.25
2022-11-06T15:32:49.197Z,97791.63
2022-11-06T15:35:56.289Z,97802.66
2022-11-06T15:38:59.010Z,97807.84
2022-11-06T15:42:01.704Z,97814.53
2022-11-06T15:45:09.874Z,97810.31
2022-11-06T15:48:22.179Z,97808.19
2022-11-06T15:51:28.315Z,97813.59
2022-11-06T15:54:36.001Z,97814.22
2022-11-06T15:57:39.071Z,97811.56
2022-11-06T16:00:42.390Z,97808.94
2022-11-06T16:03:49.580Z,97805.72
2022-11-06T16:06:55.955Z,97816.69
2022-11-06T16:09:58.943Z,97808.69
2022-11-06T16:13:03.344Z,97799.31
2022-11-06T16:16:06.835Z,97797.50
2022-11-06T16:19:22.735Z,97805.25
2022-11-06T16:22:31.898Z,97802.31
2022-11-06T16:25:34.605Z,97809.50
2022-11-06T16:28:43.348Z,97803.06
2022-11-06T16:31:48.188Z,97798.03
2022-11-06T16:34:51.757Z,97796.16
2022-11-06T16:38:12.709Z,97803.13
2022-11-06T16:41:33.688Z,97810.38
2022-11-06T16:44:46.703Z,97813.28
2022-11-06T16:48:22.627Z,97800.41
2022-11-06T16:51:32.653Z,97787.03
2022-11-06T16:54:36.752Z,97799.06
2022-11-06T16:57:45.979Z,97791.06
2022-11-06T17:00:58.817Z,97797.50
2022-11-06T17:04:03.513Z,97798.31
2022-11-06T17:07:08.034Z,97806.84
2022-11-06T17:10:38.785Z,97792.66
2022-11-06T17:13:43.953Z,97785.97
2022-11-06T17:16:49.487Z,97791.34
2022-11-06T17:19:52.212Z,97807.09
2022-11-06T17:22:54.851Z,97802.28
2022-11-06T17:26:03.148Z,97821.53
2022-11-06T17:29:06.050Z,97830.63
2022-11-06T17:32:08.694Z,97823.13
2022-11-06T17:35:11.476Z,97807.03
2022-11-06T17:38:18.172Z,97815.31
2022-11-06T17:41:30.577Z,97804.06
2022-11-06T17:44:33.257Z,97796.53
2022-11-06T17:47:35.939Z,97824.16
2022-11-06T17:50:52.494Z,97820.69
2022-11-06T17:53:55.093Z,97816.41
2022-11-06T17:57:00.316Z,97815.06
2022-11-06T18:00:03.236Z,97816.69
2022-11-06T18:03:06.503Z,97803.06
2022-11-06T18:06:16.408Z,97818.06
2022-11-06T18:09:20.649Z,97826.84
2022-11-06T18:12:27.542Z,97836.78
2022-11-06T18:15:31.297Z,97836.50
2022-11-06T18:18:41.680Z,97850.69
2022-11-06T18:21:46.381Z,97849.34
2022-11-06T18:24:49.351Z,97852.06
2022-11-06T18:28:03.799Z,97844.84
2022-11-06T18:31:06.767Z,97841.91
2022-11-06T18:34:18.355Z,97841.38
2022-11-06T18:37:25.583Z,97844.31
2022-11-06T18:40:28.257Z,97844.34
2022-11-06T18:43:32.529Z,97860.41
2022-11-06T18:46:35.220Z,97828.56
2022-11-06T18:49:37.851Z,97846.25
2022-11-06T18:52:56.776Z,97853.97
2022-11-06T18:55:59.951Z,97853.69
2022-11-06T18:59:04.651Z,97850.25
2022-11-06T19:02:07.533Z,97853.44
2022-11-06T19:05:10.299Z,97847.00
2022-11-06T19:08:13.243Z,97856.91
2022-11-06T19:11:17.841Z,97853.16
2022-11-06T19:14:21.914Z,97853.69
2022-11-06T19:17:24.615Z,97870.53
2022-11-06T19:20:27.654Z,97883.91
2022-11-06T19:23:30.675Z,97890.59
2022-11-06T19:26:34.188Z,97900.22
2022-11-06T19:29:38.231Z,97897.50
2022-11-06T19:32:40.879Z,97890.28
2022-11-06T19:35:43.537Z,97886.53
2022-11-06T19:38:46.207Z,97901.75
2022-11-06T19:41:48.831Z,97912.75
2022-11-06T19:44:55.070Z,97907.38
2022-11-06T19:48:00.266Z,97917.81
2022-11-06T19:51:03.771Z,97922.13
2022-11-06T19:54:07.532Z,97925.84
2022-11-06T19:57:26.908Z,97930.91
2022-11-06T20:00:33.808Z,97926.06
2022-11-06T20:03:36.984Z,97934.34
2022-11-06T20:06:39.821Z,97926.00
2022-11-06T20:09:42.457Z,97923.81
2022-11-06T20:12:45.289Z,97935.88
2022-11-06T20:15:49.576Z,97930.75
2022-11-06T20:18:52.864Z,97935.31
2022-11-06T20:21:55.525Z,97931.56
2022-11-06T20:24:58.184Z,97940.66
2022-11-06T20:28:00.915Z,97937.72
2022-11-06T20:31:07.771Z,97937.72
2022-11-06T20:34:10.447Z,97944.41
2022-11-06T20:37:13.177Z,97949.22
2022-11-06T20:40:15.919Z,97943.56
2022-11-06T20:43:18.547Z,97942.50
2022-11-06T20:46:23.841Z,97940.91
2022-11-06T20:49:26.487Z,97946.03
2022-11-06T20:52:29.128Z,97934.78
2022-11-06T20:55:31.800Z,97942.88
2022-11-06T20:58:34.827Z,97945.59
2022-11-06T21:01:39.298Z,97944.28
2022-11-06T21:04:42.241Z,97939.97
2022-11-06T21:07:44.912Z,97944.81
2022-11-06T21:10:54.504Z,97935.94
2022-11-06T21:13:57.321Z,97935.13
2022-11-06T21:17:02.308Z,97930.81
2022-11-06T21:20:05.661Z,97932.63
2022-11-06T21:23:08.957Z,97939.81
2022-11-06T21:26:14.197Z,97942.22
2022-11-06T21:29:16.920Z,97960.19
2022-11-06T21:32:20.876Z,97964.97
2022-11-06T21:35:23.540Z,97951.81
2022-11-06T21:38:28.076Z,97957.72
2022-11-06T21:41:33.964Z,97942.63
2022-11-06T21:44:36.615Z,97949.56
2022-11-06T21:47:40.613Z,97936.34
2022-11-06T21:50:43.297Z,97929.88
2022-11-06T21:54:03.390Z,97932.44
2022-11-06T21:57:06.051Z,97939.59
2022-11-06T22:00:14.043Z,97931.25
2022-11-06T22:03:18.690Z,97931.41
2022-11-06T22:06:24.666Z,97941.91
2022-11-06T22:09:27.343Z,97944.88
2022-11-06T22:12:29.973Z,97945.31
2022-11-06T22:15:32.600Z,97961.69
2022-11-06T22:18:37.106Z,97958.38
2022-11-06T22:21:40.991Z,97987.25
2022-11-06T22:24:43.711Z,97996.34
2022-11-06T22:27:46.343Z,97989.31
2022-11-06T22:30:48.984Z,97997.88
2022-11-06T22:33:54.075Z,97996.47
2022-11-06T22:36:56.939Z,98004.31
2022-11-06T22:39:59.576Z,98008.63
2022-11-06T22:43:02.274Z,98008.34
2022-11-06T22:46:07.675Z,98018.53
2022-11-06T22:49:12.082Z,98022.78
2022-11-06T22:52:14.683Z,98019.06
2022-11-06T22:55:17.335Z,98028.81
2022-11-06T22:58:19.919Z,98031.00
2022-11-06T23:01:23.439Z,98033.97
2022-11-06T23:04:27.464Z,98029.22
2022-11-06T23:07:30.104Z,98035.69
2022-11-06T23:10:34.827Z,98039.91
2022-11-06T23:13:37.911Z,98053.16
2022-11-06T23:17:00.388Z,98054.03
2022-11-06T23:20:04.950Z,98049.78
2022-11-06T23:23:07.732Z,98051.44
2022-11-06T23:26:14.397Z,98049.28
2022-11-06T23:29:17.099Z,98053.06
2022-11-06T23:32:19.976Z,98053.06
2022-11-06T23:35:28.072Z,98055.22
2022-11-06T23:38:34.826Z,98058.97
2022-11-06T23:41:45.525Z,98060.53
2022-11-06T23:45:06.476Z,98057.84
2022-11-06T23:48:12.616Z,98060.53
2022-11-06T23:51:16.833Z,98053.53
2022-11-06T23:54:19.475Z,98057.56
2022-11-06T23:57:22.787Z,98060.47
